Time;durP1;ratioP1;P1;durP2;ratioP2;P2;SDS_P1;SDS_P2;PMS_P1;PMS_P2;Temp;Humidity;BMP_temperature;BMP_pressure;BME280_temperature;BME280_humidity;BME280_pressure;Samples;Min_cycle;Max_cycle;Signal;HPM_P1;HPM_P2
2021/10/18 00:01:42;;;;;;;13.75;7.18;;;;;;;28.10;18.36;98701.13;5082123;28;20097;-85
2021/10/18 00:04:08;;;;;;;11.35;5.97;;;;;;;27.64;18.83;98700.31;5086973;28;20032;-86
2021/10/18 00:06:34;;;;;;;10.80;6.00;;;;;;;27.82;18.61;98708.31;5076871;28;20024;-86
2021/10/18 00:09:02;;;;;;;12.35;6.75;;;;;;;28.08;18.33;98702.34;5081690;28;20035;-86
2021/10/18 00:11:28;;;;;;;14.50;6.63;;;;;;;28.16;18.05;98696.50;5094131;28;20028;-85
2021/10/18 00:13:55;;;;;;;11.82;6.28;;;;;;;28.18;18.04;98716.59;5080143;28;20055;-86
2021/10/18 00:16:21;;;;;;;11.80;5.53;;;;;;;28.31;17.81;98706.16;5086208;28;20398;-86
2021/10/18 00:18:47;;;;;;;10.63;5.68;;;;;;;28.30;17.93;98704.56;5082174;28;20048;-85
2021/10/18 00:21:13;;;;;;;11.75;6.03;;;;;;;28.37;17.79;98704.34;5086952;28;20041;-86
2021/10/18 00:23:39;;;;;;;12.60;6.32;;;;;;;28.40;17.72;98709.88;5087194;28;20042;-86
2021/10/18 00:26:05;;;;;;;14.18;6.65;;;;;;;28.16;18.29;98702.94;5086546;28;20053;-85
2021/10/18 00:28:32;;;;;;;11.27;5.82;;;;;;;27.91;18.05;98705.66;5081450;28;20054;-86
2021/10/18 00:30:58;;;;;;;10.63;5.13;;;;;;;27.82;18.15;98706.28;5080330;28;20040;-86
2021/10/18 00:33:24;;;;;;;11.82;6.50;;;;;;;27.77;18.52;98700.41;5090369;28;20369;-86
2021/10/18 00:35:50;;;;;;;9.63;5.60;;;;;;;27.30;18.85;98697.16;5083457;28;20047;-86
2021/10/18 00:38:16;;;;;;;11.77;5.57;;;;;;;27.48;18.44;98703.16;5079343;28;20107;-86
2021/10/18 00:40:43;;;;;;;10.18;5.70;;;;;;;27.62;18.26;98694.34;5083665;28;20405;-86
2021/10/18 00:43:09;;;;;;;11.55;6.00;;;;;;;27.58;18.22;98690.03;5079669;28;20119;-86
2021/10/18 00:45:35;;;;;;;10.52;5.38;;;;;;;27.66;18.25;98688.56;5087410;28;20059;-86
2021/10/18 00:48:02;;;;;;;11.40;6.07;;;;;;;27.39;18.35;98691.72;5087652;28;20037;-86
2021/10/18 00:50:28;;;;;;;12.63;5.55;;;;;;;27.08;18.47;98690.44;5085231;28;20043;-86
2021/10/18 00:52:55;;;;;;;10.63;5.75;;;;;;;26.97;18.80;98687.91;5079862;28;20055;-85
2021/10/18 00:55:21;;;;;;;9.93;6.10;;;;;;;27.11;18.32;98693.19;5084177;28;20041;-85
2021/10/18 00:57:50;;;;;;;12.07;6.40;;;;;;;27.09;18.38;98692.06;5084459;28;20151;-86
2021/10/18 01:00:16;;;;;;;11.93;5.55;;;;;;;26.96;18.43;98691.94;5084586;28;20048;-86
2021/10/18 01:02:43;;;;;;;8.60;5.22;;;;;;;27.03;18.78;98690.97;5085243;28;20547;-85
2021/10/18 01:05:10;;;;;;;9.38;5.35;;;;;;;26.87;18.87;98694.56;5082490;28;20028;-85
2021/10/18 01:07:36;;;;;;;8.32;5.10;;;;;;;27.02;18.66;98692.22;5084432;28;20031;-85
2021/10/18 01:10:03;;;;;;;10.88;4.90;;;;;;;26.84;18.74;98695.44;5085972;28;20032;-85
2021/10/18 01:12:29;;;;;;;12.23;6.05;;;;;;;27.04;18.08;98695.41;5090978;28;20031;-84
2021/10/18 01:14:55;;;;;;;13.23;6.55;;;;;;;27.22;18.17;98699.38;5081198;28;20032;-85
2021/10/18 01:17:21;;;;;;;12.95;6.97;;;;;;;27.37;17.76;98694.19;5083462;28;20439;-85
2021/10/18 01:19:48;;;;;;;13.02;6.50;;;;;;;27.36;18.12;98695.38;5088073;28;20488;-84
2021/10/18 01:22:14;;;;;;;17.05;7.45;;;;;;;27.35;17.79;98696.63;5079344;28;20076;-85
2021/10/18 01:24:41;;;;;;;15.82;6.78;;;;;;;27.21;18.14;98694.16;5081767;28;20044;-85
2021/10/18 01:27:08;;;;;;;12.40;6.28;;;;;;;27.28;18.15;98705.28;5077800;28;20036;-84
2021/10/18 01:29:35;;;;;;;10.98;6.03;;;;;;;27.19;18.04;98703.06;5081608;28;20059;-84
2021/10/18 01:32:04;;;;;;;11.55;5.95;;;;;;;27.17;17.99;98697.06;5082674;28;20036;-84
2021/10/18 01:34:31;;;;;;;12.48;5.53;;;;;;;27.07;18.27;98695.28;5082565;28;20040;-85
2021/10/18 01:37:00;;;;;;;10.05;5.43;;;;;;;26.84;18.11;98701.09;5076154;28;20116;-84
2021/10/18 01:39:26;;;;;;;9.85;5.50;;;;;;;26.84;18.16;98703.13;5084816;28;20371;-84
2021/10/18 01:41:52;;;;;;;10.80;5.20;;;;;;;26.50;18.60;98701.44;5078071;28;20031;-84
2021/10/18 01:44:19;;;;;;;10.27;5.03;;;;;;;26.58;18.70;98694.41;5084725;28;20089;-85
2021/10/18 01:46:45;;;;;;;10.68;5.18;;;;;;;26.64;18.51;98695.50;5077047;28;20020;-84
2021/10/18 01:49:13;;;;;;;9.27;4.88;;;;;;;26.74;18.38;98691.66;5082351;28;20032;-85
2021/10/18 01:51:39;;;;;;;11.82;4.80;;;;;;;26.93;18.22;98689.22;5081071;28;20020;-85
2021/10/18 01:54:06;;;;;;;11.60;5.75;;;;;;;26.88;18.25;98689.75;5083716;28;20043;-85
2021/10/18 01:56:34;;;;;;;9.30;5.63;;;;;;;26.38;19.14;98679.56;5086862;28;20036;-85
2021/10/18 01:59:00;;;;;;;7.65;4.47;;;;;;;26.30;18.85;98689.38;5079694;28;20028;-85
2021/10/18 02:01:26;;;;;;;7.97;4.63;;;;;;;26.55;18.52;98680.41;5080346;28;20111;-85
2021/10/18 02:03:52;;;;;;;8.98;4.82;;;;;;;26.70;18.48;98676.03;5076251;28;20029;-84
2021/10/18 02:06:19;;;;;;;11.27;5.25;;;;;;;26.92;18.14;98685.59;5084149;28;20508;-85
2021/10/18 02:08:45;;;;;;;9.35;4.22;;;;;;;27.06;17.92;98684.47;5078490;28;20021;-85
2021/10/18 02:11:12;;;;;;;12.52;5.07;;;;;;;27.16;17.82;98680.59;5080870;28;20078;-84
2021/10/18 02:13:38;;;;;;;10.25;4.20;;;;;;;27.16;17.76;98689.06;5083212;28;20031;-84
2021/10/18 02:16:05;;;;;;;10.35;4.43;;;;;;;27.20;17.97;98689.75;5090994;28;20115;-85
2021/10/18 02:18:31;;;;;;;9.73;4.93;;;;;;;27.24;17.73;98682.00;5084998;28;20031;-84
2021/10/18 02:21:01;;;;;;;8.50;4.93;;;;;;;27.24;17.85;98691.25;5075839;28;20033;-84
2021/10/18 02:23:31;;;;;;;10.13;4.80;;;;;;;27.18;17.47;98698.66;5080118;28;20115;-84
2021/10/18 02:25:57;;;;;;;10.27;6.18;;;;;;;27.20;17.65;98690.56;5084303;28;20024;-84
2021/10/18 02:28:23;;;;;;;13.95;8.30;;;;;;;27.20;17.46;98696.19;5075500;28;20056;-84
2021/10/18 02:30:50;;;;;;;13.43;6.38;;;;;;;27.04;17.87;98692.56;5081833;28;20086;-84
2021/10/18 02:33:17;;;;;;;13.73;7.82;;;;;;;27.04;17.91;98687.72;5077337;28;20101;-84
2021/10/18 02:35:43;;;;;;;12.77;7.03;;;;;;;27.15;17.61;98695.91;5081754;28;20070;-85
2021/10/18 02:38:09;;;;;;;11.27;5.55;;;;;;;26.82;17.85;98697.91;5079606;28;20028;-84
2021/10/18 02:40:35;;;;;;;10.77;5.57;;;;;;;26.83;18.10;98693.09;5079464;28;20101;-85
2021/10/18 02:43:01;;;;;;;9.82;5.32;;;;;;;26.93;17.69;98692.84;5080924;28;20398;-84
2021/10/18 02:45:27;;;;;;;12.45;5.97;;;;;;;26.97;18.06;98692.75;5083940;28;20067;-85
2021/10/18 02:47:53;;;;;;;10.23;5.65;;;;;;;27.07;17.59;98686.06;5079006;28;20028;-84
2021/10/18 02:50:19;;;;;;;10.35;4.95;;;;;;;26.87;18.08;98688.16;5081803;28;20055;-84
2021/10/18 02:52:45;;;;;;;8.20;4.55;;;;;;;26.68;18.04;98682.09;5078792;28;20045;-84
2021/10/18 02:55:11;;;;;;;9.07;4.53;;;;;;;26.57;18.53;98690.00;5081400;28;20516;-84
2021/10/18 02:57:37;;;;;;;9.85;4.82;;;;;;;26.77;18.03;98687.16;5078962;28;20031;-84
2021/10/18 03:00:05;;;;;;;11.23;4.97;;;;;;;26.90;17.94;98692.91;5081072;28;20033;-84
2021/10/18 03:02:31;;;;;;;11.50;5.43;;;;;;;27.02;17.91;98690.22;5081451;28;20032;-85
2021/10/18 03:04:57;;;;;;;9.07;4.97;;;;;;;27.05;17.94;98688.53;5076257;28;20028;-85
2021/10/18 03:07:23;;;;;;;7.30;4.63;;;;;;;27.08;17.91;98696.88;5080913;28;20025;-85
2021/10/18 03:09:49;;;;;;;8.48;4.70;;;;;;;27.12;17.66;98691.94;5084011;28;20074;-84
2021/10/18 03:12:15;;;;;;;8.35;5.18;;;;;;;27.09;17.72;98692.06;5083563;28;20029;-85
2021/10/18 03:14:41;;;;;;;8.40;4.40;;;;;;;27.06;18.06;98688.09;5077148;28;20123;-84
2021/10/18 03:17:07;;;;;;;8.30;4.40;;;;;;;27.03;17.70;98694.59;5076072;28;20040;-84
2021/10/18 03:19:33;;;;;;;8.82;4.18;;;;;;;27.02;17.93;98695.03;5074612;28;20036;-85
2021/10/18 03:21:59;;;;;;;7.22;4.40;;;;;;;26.71;18.07;98688.88;5077107;28;20051;-85
2021/10/18 03:24:25;;;;;;;7.55;4.15;;;;;;;26.89;18.27;98691.31;5073813;28;20405;-85
2021/10/18 03:26:51;;;;;;;6.25;3.97;;;;;;;26.96;18.08;98696.78;5082257;28;20034;-85
2021/10/18 03:29:17;;;;;;;6.88;4.00;;;;;;;26.79;17.99;98695.19;5082980;28;20040;-85
2021/10/18 03:31:43;;;;;;;10.07;4.50;;;;;;;26.81;18.18;98695.53;5065571;28;20116;-86
2021/10/18 03:34:09;;;;;;;8.90;5.13;;;;;;;26.47;18.66;98682.59;5070410;28;20123;-85
2021/10/18 03:36:35;;;;;;;6.55;3.58;;;;;;;26.20;18.66;98681.97;5062833;28;20068;-84
2021/10/18 03:39:02;;;;;;;8.40;4.07;;;;;;;26.58;18.20;98702.06;5068806;28;20455;-85
2021/10/18 03:41:28;;;;;;;6.28;3.85;;;;;;;26.85;18.17;98693.44;5078567;28;20081;-85
2021/10/18 03:43:54;;;;;;;7.80;4.47;;;;;;;27.08;18.27;98701.72;5083572;28;20064;-85
2021/10/18 03:46:20;;;;;;;9.68;4.97;;;;;;;27.08;18.29;98699.72;5081386;28;20024;-85
2021/10/18 03:48:46;;;;;;;8.27;4.07;;;;;;;26.91;18.38;98706.56;5084702;28;20032;-85
2021/10/18 03:51:12;;;;;;;8.85;4.20;;;;;;;26.94;18.42;98702.88;5085651;28;20039;-85
2021/10/18 03:53:38;;;;;;;9.23;4.82;;;;;;;27.16;18.27;98700.34;5082742;28;20047;-86
2021/10/18 03:56:04;;;;;;;7.25;3.97;;;;;;;27.39;17.86;98705.81;5083206;28;20032;-86
2021/10/18 03:58:30;;;;;;;6.70;4.07;;;;;;;27.39;18.08;98711.47;5083955;28;20050;-85
2021/10/18 04:00:56;;;;;;;6.32;3.75;;;;;;;27.39;18.21;98715.09;5081108;28;20085;-86
2021/10/18 04:03:22;;;;;;;7.03;3.83;;;;;;;27.47;17.90;98703.63;5075451;28;20485;-86
2021/10/18 04:05:48;;;;;;;7.00;4.38;;;;;;;27.52;18.10;98709.50;5077269;28;20046;-86
2021/10/18 04:08:14;;;;;;;7.38;4.05;;;;;;;27.72;18.04;98704.56;5078502;28;20066;-85
2021/10/18 04:10:40;;;;;;;6.50;3.28;;;;;;;27.41;18.04;98709.00;5077625;28;20032;-85
2021/10/18 04:13:06;;;;;;;8.65;3.95;;;;;;;27.04;18.65;98713.09;5078369;28;20039;-84
2021/10/18 04:15:33;;;;;;;6.03;3.22;;;;;;;26.97;18.67;98718.09;5078482;28;20437;-85
2021/10/18 04:17:59;;;;;;;7.32;4.63;;;;;;;27.25;18.37;98709.75;5083886;28;20553;-85
2021/10/18 04:20:25;;;;;;;6.85;4.13;;;;;;;27.48;18.25;98716.47;5082294;28;20122;-85
2021/10/18 04:22:51;;;;;;;9.23;4.82;;;;;;;27.17;18.55;98716.00;5084365;28;20082;-86
2021/10/18 04:25:17;;;;;;;8.93;4.45;;;;;;;26.83;19.50;98727.69;5087682;28;20040;-86
2021/10/18 04:27:44;;;;;;;6.07;3.60;;;;;;;27.00;19.10;98723.66;5086996;28;20032;-85
2021/10/18 04:30:10;;;;;;;6.93;3.95;;;;;;;27.42;18.82;98721.88;5087069;28;20078;-85
2021/10/18 04:32:37;;;;;;;6.97;3.63;;;;;;;27.36;18.78;98715.94;5083538;28;20036;-85
2021/10/18 04:35:03;;;;;;;5.05;3.33;;;;;;;27.49;18.73;98721.69;5083513;28;20036;-86
2021/10/18 04:37:30;;;;;;;5.53;3.67;;;;;;;27.24;18.74;98727.91;5084583;28;20047;-85
2021/10/18 04:39:59;;;;;;;5.90;3.95;;;;;;;27.29;18.94;98730.19;5080667;28;20481;-86
2021/10/18 04:42:25;;;;;;;7.82;3.67;;;;;;;27.44;18.90;98727.84;5075143;28;20060;-83
2021/10/18 04:44:52;;;;;;;5.32;3.42;;;;;;;27.55;18.56;98733.22;5080277;28;20028;-84
2021/10/18 04:47:18;;;;;;;6.88;3.90;;;;;;;27.20;19.26;98732.03;5084051;28;20873;-84
2021/10/18 04:49:44;;;;;;;6.68;3.75;;;;;;;27.34;18.86;98745.81;5076623;28;20106;-84
2021/10/18 04:52:10;;;;;;;10.00;4.35;;;;;;;27.59;18.91;98742.38;5084784;28;20498;-84
2021/10/18 04:54:36;;;;;;;8.57;4.20;;;;;;;27.67;18.69;98746.59;5080163;28;20040;-83
2021/10/18 04:57:03;;;;;;;6.63;3.25;;;;;;;27.55;18.79;98745.28;5087739;28;20066;-83
2021/10/18 04:59:29;;;;;;;8.05;4.05;;;;;;;27.83;18.51;98758.66;5083516;28;20039;-83
2021/10/18 05:01:55;;;;;;;7.47;3.88;;;;;;;28.03;18.34;98759.34;5087069;28;20043;-82
2021/10/18 05:04:21;;;;;;;8.57;3.28;;;;;;;28.23;18.07;98761.25;5086569;28;20580;-83
2021/10/18 05:06:47;;;;;;;7.72;4.05;;;;;;;28.37;18.08;98761.66;5089020;28;20035;-82
2021/10/18 05:09:13;;;;;;;6.80;3.78;;;;;;;28.19;18.48;98764.19;5085367;28;20028;-82
2021/10/18 05:11:40;;;;;;;5.90;3.50;;;;;;;27.57;19.07;98767.41;5085626;28;20420;-82
2021/10/18 05:14:06;;;;;;;5.63;3.72;;;;;;;27.17;19.25;98767.53;5082845;28;20032;-83
2021/10/18 05:16:34;;;;;;;6.68;3.60;;;;;;;27.24;19.43;98775.84;5085644;28;20063;-83
2021/10/18 05:19:00;;;;;;;6.07;3.95;;;;;;;27.26;19.63;98778.22;5083869;28;20028;-83
2021/10/18 05:21:26;;;;;;;6.10;3.55;;;;;;;26.89;19.75;98785.09;5082612;28;20447;-81
2021/10/18 05:23:52;;;;;;;6.68;3.60;;;;;;;27.22;19.36;98783.16;5079776;28;20452;-83
2021/10/18 05:26:18;;;;;;;7.75;3.92;;;;;;;27.07;19.92;98785.50;5082343;28;20039;-82
2021/10/18 05:28:44;;;;;;;6.35;3.60;;;;;;;27.15;19.62;98788.94;5079180;28;20028;-84
2021/10/18 05:31:11;;;;;;;6.40;3.47;;;;;;;27.46;19.33;98789.47;5091228;28;20063;-83
2021/10/18 05:33:37;;;;;;;6.13;3.88;;;;;;;27.91;18.56;98798.78;5090228;28;20077;-83
2021/10/18 05:36:03;;;;;;;7.82;4.55;;;;;;;28.18;18.49;98796.47;5083913;28;20025;-83
2021/10/18 05:38:29;;;;;;;8.38;4.43;;;;;;;28.37;18.29;98806.03;5090474;28;20112;-83
2021/10/18 05:40:55;;;;;;;8.68;4.57;;;;;;;28.46;18.16;98809.00;5083112;28;20040;-83
2021/10/18 05:43:21;;;;;;;7.18;4.25;;;;;;;28.46;18.40;98809.00;5089368;28;20539;-83
2021/10/18 05:45:47;;;;;;;7.30;4.38;;;;;;;28.55;18.40;98811.97;5090993;28;20488;-84
2021/10/18 05:48:15;;;;;;;7.35;4.28;;;;;;;28.37;18.75;98814.50;5091208;28;20020;-84
2021/10/18 05:50:44;;;;;;;9.25;3.85;;;;;;;28.04;19.24;98816.63;5094841;28;20489;-84
2021/10/18 05:53:12;;;;;;;9.57;4.15;;;;;;;28.04;19.29;98827.91;5094033;28;20044;-83
2021/10/18 05:55:38;;;;;;;5.97;3.65;;;;;;;28.25;18.94;98827.34;5085030;28;20041;-83
2021/10/18 05:58:07;;;;;;;7.10;4.20;;;;;;;28.27;19.00;98832.53;5073427;28;20031;-83
2021/10/18 06:00:44;;;;;;;7.50;4.75;;;;;;;28.40;18.80;98828.53;5076358;28;20032;-83
2021/10/18 06:03:11;;;;;;;10.80;5.13;;;;;;;28.61;18.71;98832.84;5073326;28;20025;-83
2021/10/18 06:05:43;;;;;;;9.50;5.45;;;;;;;28.79;18.50;98832.31;5090162;28;20170;-84
2021/10/18 06:08:11;;;;;;;11.32;6.35;;;;;;;28.91;18.36;98837.22;5073950;28;20032;-84
2021/10/18 06:10:37;;;;;;;18.48;8.27;;;;;;;28.98;18.28;98834.97;5074312;28;20047;-83
2021/10/18 06:13:04;;;;;;;14.07;6.15;;;;;;;28.94;18.19;98839.91;5077189;28;20032;-84
2021/10/18 06:15:30;;;;;;;14.32;5.85;;;;;;;28.95;18.23;98837.88;5085209;28;20044;-83
2021/10/18 06:18:05;;;;;;;13.77;5.05;;;;;;;29.04;18.46;98843.66;5076342;28;20500;-84
2021/10/18 06:20:31;;;;;;;11.93;7.05;;;;;;;29.06;18.42;98858.94;5074003;28;20098;-84
2021/10/18 06:22:57;;;;;;;9.52;5.65;;;;;;;28.98;18.31;98851.94;5076722;28;20058;-84
2021/10/18 06:25:25;;;;;;;10.18;6.07;;;;;;;28.99;18.52;98855.53;5094131;28;20032;-84
2021/10/18 06:27:51;;;;;;;10.13;5.68;;;;;;;28.95;18.57;98858.47;5089209;28;20033;-84
2021/10/18 06:30:17;;;;;;;9.88;5.40;;;;;;;29.06;18.67;98864.59;5085572;28;20046;-84
2021/10/18 06:32:43;;;;;;;9.35;5.72;;;;;;;29.18;18.57;98874.38;5075721;28;20029;-84
2021/10/18 06:35:09;;;;;;;10.95;6.00;;;;;;;29.24;18.60;98867.72;5072941;28;20079;-84
2021/10/18 06:37:35;;;;;;;10.05;5.53;;;;;;;29.15;18.81;98872.44;5072216;28;20205;-83
2021/10/18 06:40:02;;;;;;;7.13;4.70;;;;;;;29.18;18.87;98877.22;5076750;28;20020;-84
2021/10/18 06:42:28;;;;;;;8.70;4.28;;;;;;;29.18;18.78;98882.88;5074869;28;20028;-84
2021/10/18 06:44:54;;;;;;;8.23;4.15;;;;;;;29.26;18.77;98881.44;5074001;28;20146;-84
2021/10/18 06:47:20;;;;;;;5.88;4.40;;;;;;;29.31;18.75;98887.31;5091016;28;20028;-84
2021/10/18 06:49:46;;;;;;;7.95;4.20;;;;;;;29.23;19.13;98879.50;5088255;28;20032;-84
2021/10/18 06:52:12;;;;;;;9.68;5.28;;;;;;;29.09;19.22;98886.34;5076954;28;20112;-84
2021/10/18 06:54:41;;;;;;;7.85;5.25;;;;;;;29.17;19.15;98881.28;5080351;28;20048;-84
2021/10/18 06:57:07;;;;;;;6.75;4.75;;;;;;;29.24;19.27;98883.91;5072017;28;20048;-84
2021/10/18 06:59:33;;;;;;;8.18;4.15;;;;;;;28.86;19.48;98892.28;5074713;28;20074;-84
2021/10/18 07:02:00;;;;;;;7.45;4.88;;;;;;;28.88;19.57;98898.28;5072196;28;20039;-84
2021/10/18 07:04:29;;;;;;;7.20;4.60;;;;;;;28.93;19.55;98889.25;5086856;28;20553;-84
2021/10/18 07:06:56;;;;;;;9.05;4.60;;;;;;;28.29;20.27;98897.84;5088842;28;20033;-84
2021/10/18 07:09:24;;;;;;;8.85;5.80;;;;;;;28.28;20.50;98899.91;5074552;28;20082;-83
2021/10/18 07:11:51;;;;;;;7.40;4.88;;;;;;;28.44;20.11;98902.69;5090963;28;20493;-84
2021/10/18 07:14:17;;;;;;;9.02;5.15;;;;;;;28.08;20.76;98911.28;5101903;28;20081;-84
2021/10/18 07:16:43;;;;;;;8.35;5.32;;;;;;;28.34;20.57;98908.59;5091820;28;20493;-83
2021/10/18 07:19:09;;;;;;;11.82;7.22;;;;;;;28.37;20.20;98913.38;5080992;28;20021;-83
2021/10/18 07:21:36;;;;;;;13.00;6.72;;;;;;;28.49;20.19;98913.47;5080700;28;20409;-83
2021/10/18 07:24:04;;;;;;;11.80;6.80;;;;;;;28.33;20.13;98913.50;5086552;28;20039;-83
2021/10/18 07:26:31;;;;;;;15.77;9.88;;;;;;;27.56;21.36;98915.38;5075504;28;20054;-83
2021/10/18 07:28:57;;;;;;;11.48;6.80;;;;;;;27.37;21.82;98917.00;5082845;28;20063;-83
2021/10/18 07:31:23;;;;;;;9.25;6.38;;;;;;;27.68;21.32;98918.28;5093209;28;20021;-83
2021/10/18 07:33:50;;;;;;;8.52;5.72;;;;;;;28.15;21.26;98926.44;5089068;28;20063;-83
2021/10/18 07:36:24;;;;;;;14.07;7.72;;;;;;;27.56;22.10;98924.63;5102788;28;20032;-83
2021/10/18 07:38:51;;;;;;;10.43;6.57;;;;;;;27.48;22.13;98919.56;5080709;28;20024;-83
2021/10/18 07:41:18;;;;;;;22.63;9.32;;;;;;;27.39;22.11;98923.78;5082059;28;20028;-83
2021/10/18 07:43:45;;;;;;;8.98;6.47;;;;;;;26.74;22.67;98925.50;5086883;28;20071;-83
2021/10/18 07:46:11;;;;;;;14.90;7.90;;;;;;;26.79;22.74;98918.59;5072862;28;20078;-83
2021/10/18 07:48:37;;;;;;;11.43;7.40;;;;;;;26.43;23.47;98921.25;5074503;28;20033;-83
2021/10/18 07:51:03;;;;;;;14.85;7.70;;;;;;;26.39;23.51;98926.16;5085832;28;20044;-83
2021/10/18 07:53:30;;;;;;;14.35;8.18;;;;;;;25.99;23.69;98922.38;5071047;28;20127;-83
2021/10/18 07:55:56;;;;;;;15.48;9.02;;;;;;;25.98;23.89;98928.41;5072677;28;20386;-83
2021/10/18 07:58:22;;;;;;;15.02;8.38;;;;;;;25.98;23.90;98936.88;5075982;28;20048;-83
2021/10/18 08:00:48;;;;;;;13.98;8.02;;;;;;;25.99;23.56;98933.63;5082252;28;20081;-83
2021/10/18 08:03:14;;;;;;;18.77;11.85;;;;;;;25.18;24.58;98929.16;5089595;28;20145;-83
2021/10/18 08:05:40;;;;;;;19.10;9.52;;;;;;;25.31;24.27;98924.56;5074393;28;20062;-83
2021/10/18 08:08:09;;;;;;;15.88;9.40;;;;;;;25.03;25.03;98929.75;5092818;28;20035;-83
2021/10/18 08:10:36;;;;;;;14.45;9.27;;;;;;;25.66;24.81;98939.38;5082212;28;20038;-83
2021/10/18 08:13:02;;;;;;;19.35;9.35;;;;;;;25.69;25.05;98935.72;5077290;28;20028;-83
2021/10/18 08:15:34;;;;;;;20.80;10.48;;;;;;;25.78;24.48;98936.78;5087000;28;20120;-83
2021/10/18 08:18:01;;;;;;;20.98;11.45;;;;;;;25.74;24.87;98946.50;5092360;28;20028;-83
2021/10/18 08:20:27;;;;;;;16.50;10.23;;;;;;;26.27;24.27;98946.47;5096335;28;20529;-83
2021/10/18 08:22:53;;;;;;;18.00;11.38;;;;;;;26.44;23.54;98948.16;5095156;28;20032;-83
2021/10/18 08:25:19;;;;;;;16.52;8.88;;;;;;;26.39;23.80;98943.06;5078507;28;20052;-83
2021/10/18 08:27:46;;;;;;;15.43;9.02;;;;;;;26.17;24.09;98955.09;5076729;28;20029;-83
2021/10/18 08:30:12;;;;;;;16.48;10.25;;;;;;;26.35;23.41;98952.78;5075471;28;20041;-83
2021/10/18 08:32:40;;;;;;;14.57;9.25;;;;;;;26.22;24.18;98955.41;5080044;28;20466;-83
2021/10/18 08:35:08;;;;;;;13.95;9.20;;;;;;;25.63;24.87;98954.28;5090591;28;20074;-83
2021/10/18 08:40:20;;;;;;;19.05;11.00;;;;;;;25.52;24.75;98956.44;5075696;28;20135;-83
2021/10/18 08:42:57;;;;;;;21.27;11.45;;;;;;;24.80;25.93;98952.91;5084649;28;20028;-83
2021/10/18 08:45:23;;;;;;;14.90;9.30;;;;;;;24.53;26.06;98957.56;5078260;28;20031;-83
2021/10/18 08:47:52;;;;;;;18.92;12.13;;;;;;;24.28;26.65;98969.03;5092806;28;20073;-83
2021/10/18 08:50:18;;;;;;;13.40;8.52;;;;;;;24.70;26.32;98967.81;5079277;28;20115;-83
2021/10/18 08:52:45;;;;;;;18.02;10.95;;;;;;;24.77;26.06;98969.78;5075579;28;20051;-83
2021/10/18 08:55:11;;;;;;;20.50;10.85;;;;;;;25.08;26.10;98966.63;5075405;28;20043;-83
2021/10/18 08:57:37;;;;;;;18.73;10.05;;;;;;;25.61;25.31;98970.78;5075659;28;20520;-83
2021/10/18 09:00:06;;;;;;;16.25;10.02;;;;;;;25.83;25.08;98972.09;5077279;28;20070;-83
2021/10/18 09:02:39;;;;;;;23.05;11.75;;;;;;;25.85;25.20;98964.00;5075149;28;20036;-83
2021/10/18 09:05:07;;;;;;;15.52;9.80;;;;;;;25.42;25.64;98975.84;5075157;28;20075;-83
2021/10/18 09:07:38;;;;;;;15.35;9.50;;;;;;;26.01;25.45;98976.22;5078106;28;20099;-83
2021/10/18 09:10:12;;;;;;;13.75;8.85;;;;;;;26.45;24.82;98980.75;5074710;28;20033;-83
2021/10/18 09:12:40;;;;;;;16.40;9.48;;;;;;;26.58;24.36;98978.13;5095507;28;20031;-83
2021/10/18 09:15:25;;;;;;;12.82;8.48;;;;;;;27.00;24.63;98979.38;5093326;28;20040;-83
2021/10/18 09:17:53;;;;;;;12.88;8.63;;;;;;;26.96;24.47;98990.69;5075327;28;20111;-83
2021/10/18 09:20:36;;;;;;;10.27;7.13;;;;;;;26.87;24.62;98989.69;5073980;28;20056;-83
2021/10/18 09:23:27;;;;;;;13.93;8.80;;;;;;;26.70;25.08;98983.09;5082847;28;20024;-83
2021/10/18 09:26:08;;;;;;;7.85;5.13;;;;;;;26.52;25.11;98980.63;5075578;28;20029;-83
2021/10/18 09:28:35;;;;;;;11.90;7.50;;;;;;;26.57;25.10;98980.13;5080282;28;20437;-83
2021/10/18 09:31:01;;;;;;;9.48;5.85;;;;;;;26.52;25.41;98986.25;5093692;28;20558;-83
2021/10/18 09:33:36;;;;;;;7.50;5.93;;;;;;;26.27;25.30;98985.09;5088006;28;20104;-83
2021/10/18 09:36:05;;;;;;;8.27;6.03;;;;;;;25.66;26.24;98981.56;5080122;28;20037;-83
2021/10/18 09:38:32;;;;;;;10.07;6.65;;;;;;;25.53;26.19;98986.19;5076298;28;20039;-83
2021/10/18 09:41:00;;;;;;;9.93;6.30;;;;;;;25.78;26.47;98981.00;5081973;28;20111;-83
2021/10/18 09:44:08;;;;;;;12.35;6.88;;;;;;;26.03;26.18;98976.59;5078243;28;20044;-83
2021/10/18 09:46:24;;;;;;;6.97;5.03;;;;;;;26.61;25.52;98986.50;5080535;28;20078;-83
2021/10/18 10:53:43;;;;;;;5.78;4.07;;;;;;;27.74;24.18;98992.72;5079916;28;20044;-84
2021/10/18 10:56:29;;;;;;;6.03;4.65;;;;;;;27.33;24.28;98993.16;5072966;28;20106;-83
2021/10/18 10:59:21;;;;;;;9.25;5.43;;;;;;;26.51;25.75;99006.41;5076168;28;20493;-84
2021/10/18 11:02:09;;;;;;;5.20;3.97;;;;;;;25.88;26.54;98994.13;5084105;28;20032;-83
2021/10/18 11:04:36;;;;;;;6.15;4.25;;;;;;;26.32;26.03;98995.88;5080762;28;20039;-83
2021/10/18 11:07:07;;;;;;;6.45;4.93;;;;;;;26.77;25.29;98991.47;5076034;28;20032;-84
2021/10/18 11:09:41;;;;;;;6.63;4.15;;;;;;;27.26;24.60;98998.97;5076526;28;20486;-84
2021/10/18 11:12:17;;;;;;;7.82;5.53;;;;;;;27.31;24.64;98989.19;5075652;28;20059;-83
2021/10/18 11:15:05;;;;;;;8.82;6.03;;;;;;;26.96;24.96;98995.53;5072789;28;20029;-84
2021/10/18 11:17:34;;;;;;;8.02;5.50;;;;;;;26.68;25.19;98994.81;5073150;28;20021;-84
2021/10/18 11:20:11;;;;;;;7.13;5.30;;;;;;;26.62;25.28;98999.38;5073388;28;20028;-84
2021/10/18 11:22:43;;;;;;;7.07;5.53;;;;;;;26.77;25.05;99001.97;5085753;28;20051;-83
2021/10/18 11:25:26;;;;;;;7.60;5.18;;;;;;;26.76;25.30;98994.72;5073117;28;20068;-83
2021/10/18 11:28:01;;;;;;;5.40;4.13;;;;;;;26.86;25.13;98997.34;5073198;28;20036;-84
2021/10/18 11:30:30;;;;;;;8.75;5.50;;;;;;;26.61;25.14;98994.16;5092824;28;20028;-84
2021/10/18 11:32:56;;;;;;;7.25;4.95;;;;;;;27.08;24.77;98998.53;5085704;28;20031;-84
2021/10/18 11:35:23;;;;;;;9.40;5.75;;;;;;;25.96;26.16;98993.59;5082250;28;20032;-83
2021/10/18 11:37:59;;;;;;;7.55;4.70;;;;;;;25.69;26.45;98991.97;5093386;28;20032;-83
2021/10/18 11:40:34;;;;;;;6.93;5.03;;;;;;;26.76;25.31;98987.06;5080733;28;20480;-84
2021/10/18 11:43:11;;;;;;;9.40;6.07;;;;;;;26.80;25.64;98993.44;5092110;28;20497;-83
2021/10/18 11:45:43;;;;;;;10.40;7.20;;;;;;;25.89;26.41;98985.25;5092142;28;20036;-83
2021/10/18 11:48:21;;;;;;;7.28;4.60;;;;;;;26.32;26.18;98991.03;5092540;28;20032;-83
2021/10/18 11:50:52;;;;;;;9.00;5.60;;;;;;;26.90;25.32;98980.38;5076735;28;20486;-83
2021/10/18 11:53:19;;;;;;;8.48;6.20;;;;;;;26.72;25.33;98983.50;5076341;28;20032;-83
2021/10/18 11:55:49;;;;;;;8.18;5.70;;;;;;;26.12;26.08;98989.34;5076347;28;20115;-83
2021/10/18 11:58:24;;;;;;;10.50;7.25;;;;;;;25.18;27.69;98990.97;5075803;28;20032;-83
2021/10/18 12:01:01;;;;;;;8.50;6.43;;;;;;;25.65;27.04;98982.81;5081807;28;20082;-83
2021/10/18 12:03:28;;;;;;;12.23;7.53;;;;;;;25.47;27.09;98985.84;5088755;28;20079;-83
2021/10/18 12:05:57;;;;;;;8.75;6.32;;;;;;;25.66;26.87;98990.00;5080977;28;20509;-83
2021/10/18 12:08:35;;;;;;;9.95;7.10;;;;;;;25.60;27.04;98989.66;5091845;28;20043;-83
2021/10/18 12:11:04;;;;;;;10.88;6.82;;;;;;;26.38;25.91;98991.31;5075830;28;20056;-83
2021/10/18 12:13:35;;;;;;;10.60;5.95;;;;;;;26.29;26.28;98991.88;5079667;28;20116;-83
2021/10/18 12:16:05;;;;;;;8.82;5.78;;;;;;;26.50;25.76;98999.19;5078619;28;20394;-83
2021/10/18 12:18:44;;;;;;;8.68;6.65;;;;;;;25.77;26.54;99002.69;5095474;28;20390;-83
2021/10/18 12:21:22;;;;;;;11.15;7.65;;;;;;;25.53;27.08;98991.81;5085599;28;20068;-83
2021/10/18 12:23:51;;;;;;;10.75;7.22;;;;;;;25.89;26.59;98995.69;5076112;28;20024;-83
2021/10/18 12:26:18;;;;;;;9.27;6.32;;;;;;;26.62;25.46;98995.75;5087743;28;20039;-83
2021/10/18 12:28:53;;;;;;;10.65;5.82;;;;;;;27.17;24.73;98990.28;5084936;28;20047;-83
2021/10/18 12:31:38;;;;;;;7.95;5.63;;;;;;;27.15;25.14;98989.13;5082765;28;20381;-83
2021/10/18 12:34:19;;;;;;;11.00;7.30;;;;;;;26.05;26.51;98995.84;5078008;28;20059;-83
2021/10/18 12:36:46;;;;;;;;;;;;;;;25.01;28.05;98999.63;5077369;28;20043;-83
2021/10/18 12:39:13;;;;;;;13.20;9.60;;;;;;;24.90;28.27;98999.72;5075663;28;19916;-83
2021/10/18 12:41:44;;;;;;;11.48;7.55;;;;;;;25.44;27.34;99003.53;5096055;28;20036;-83